createdAt,value
2017-11-05T00:00:45.574Z,20.27
2017-11-05T00:03:12.236Z,18.90
2017-11-05T00:05:38.850Z,19.53
2017-11-05T00:08:05.497Z,19.33
2017-11-05T00:10:32.105Z,18.73
2017-11-05T00:12:58.741Z,18.93
2017-11-05T00:15:25.441Z,18.33
2017-11-05T00:17:52.041Z,18.70
2017-11-05T00:20:18.665Z,18.77
2017-11-05T00:22:45.388Z,17.80
2017-11-05T00:25:11.994Z,18.87
2017-11-05T00:27:38.608Z,19.30
2017-11-05T00:30:05.232Z,17.90
2017-11-05T00:32:31.825Z,17.10
2017-11-05T00:34:58.447Z,17.63
2017-11-05T00:37:25.052Z,16.63
2017-11-05T00:39:51.682Z,18.37
2017-11-05T00:42:18.277Z,18.27
2017-11-05T00:44:45.026Z,17.77
2017-11-05T00:47:11.625Z,17.27
2017-11-05T00:49:38.244Z,17.03
2017-11-05T00:52:04.858Z,18.70
2017-11-05T00:54:31.576Z,18.80
2017-11-05T00:56:58.178Z,17.30
2017-11-05T00:59:24.791Z,16.90
2017-11-05T01:01:51.489Z,17.43
2017-11-05T01:04:18.102Z,17.73
2017-11-05T01:06:44.712Z,16.60
2017-11-05T01:09:11.358Z,18.27
2017-11-05T01:11:37.957Z,17.70
2017-11-05T01:14:04.561Z,18.60
2017-11-05T01:16:31.185Z,16.47
2017-11-05T01:18:57.793Z,16.80
2017-11-05T01:21:24.493Z,16.40
2017-11-05T01:23:51.117Z,16.80
2017-11-05T01:26:17.717Z,17.10
2017-11-05T01:28:44.317Z,16.33
2017-11-05T01:31:10.937Z,15.37
2017-11-05T01:33:37.779Z,16.23
2017-11-05T01:36:04.381Z,15.07
2017-11-05T01:38:30.990Z,15.30
2017-11-05T01:40:57.606Z,15.30
2017-11-05T01:43:24.217Z,15.23
2017-11-05T01:45:50.845Z,15.20
2017-11-05T01:48:17.446Z,15.13
2017-11-05T01:50:44.046Z,15.07
2017-11-05T01:53:10.780Z,14.27
2017-11-05T01:55:37.397Z,14.80
2017-11-05T01:58:04.002Z,14.47
2017-11-05T02:00:30.609Z,14.17
2017-11-05T02:02:57.229Z,13.00
2017-11-05T02:05:23.832Z,11.57
2017-11-05T02:07:50.476Z,11.23
2017-11-05T02:10:17.095Z,9.80
2017-11-05T02:12:43.712Z,9.80
2017-11-05T02:15:10.326Z,7.40
2017-11-05T02:17:36.945Z,7.20
2017-11-05T02:20:03.540Z,6.23
2017-11-05T02:22:30.153Z,6.63
2017-11-05T02:24:56.776Z,6.77
2017-11-05T02:27:23.373Z,5.97
2017-11-05T02:29:49.985Z,6.73
2017-11-05T02:32:16.675Z,6.17
2017-11-05T02:34:43.284Z,6.00
2017-11-05T02:37:09.876Z,6.33
2017-11-05T02:39:36.479Z,6.00
2017-11-05T02:42:03.085Z,5.80
2017-11-05T02:44:29.709Z,5.70
2017-11-05T02:46:56.309Z,5.70
2017-11-05T02:49:22.905Z,5.50
2017-11-05T02:51:49.522Z,5.50
2017-11-05T02:54:16.119Z,5.27
2017-11-05T02:56:42.732Z,5.90
2017-11-05T02:59:09.342Z,6.10
2017-11-05T03:01:35.933Z,5.50
2017-11-05T03:04:02.657Z,6.00
2017-11-05T03:06:29.241Z,6.67
2017-11-05T03:08:55.933Z,6.73
2017-11-05T03:11:22.530Z,6.43
2017-11-05T03:13:49.145Z,5.83
2017-11-05T03:16:15.742Z,7.10
2017-11-05T03:18:42.350Z,6.47
2017-11-05T03:21:08.994Z,5.87
2017-11-05T03:23:35.593Z,5.97
2017-11-05T03:26:02.225Z,6.97
2017-11-05T03:28:28.841Z,5.97
2017-11-05T03:30:55.458Z,6.07
2017-11-05T03:33:22.053Z,6.53
2017-11-05T03:35:48.666Z,6.27
2017-11-05T03:38:15.253Z,6.03
2017-11-05T03:40:41.890Z,6.00
2017-11-05T03:43:08.472Z,5.97
2017-11-05T03:45:35.090Z,6.67
2017-11-05T03:48:01.725Z,6.67
2017-11-05T03:50:28.326Z,6.80
2017-11-05T03:52:54.915Z,6.83
2017-11-05T03:55:21.534Z,6.90
2017-11-05T03:57:48.144Z,7.20
2017-11-05T04:00:14.757Z,7.00
2017-11-05T04:02:41.357Z,8.27
2017-11-05T04:05:07.970Z,9.40
2017-11-05T04:07:34.561Z,8.90
2017-11-05T04:10:01.301Z,8.67
2017-11-05T04:12:27.885Z,9.53
2017-11-05T04:14:54.488Z,9.03
2017-11-05T04:17:21.210Z,9.27
2017-11-05T04:19:47.820Z,9.20
2017-11-05T04:22:14.421Z,9.07
2017-11-05T04:24:41.040Z,9.07
2017-11-05T04:27:07.640Z,8.33
2017-11-05T04:29:34.261Z,8.30
2017-11-05T04:32:00.864Z,9.10
2017-11-05T04:34:27.484Z,8.90
2017-11-05T04:36:54.213Z,9.27
2017-11-05T04:39:20.817Z,9.00
2017-11-05T04:41:47.408Z,7.70
2017-11-05T04:44:14.038Z,7.77
2017-11-05T04:46:40.661Z,7.13
2017-11-05T04:49:07.304Z,7.10
2017-11-05T04:51:33.914Z,5.67
2017-11-05T04:54:00.533Z,5.73
2017-11-05T04:56:27.149Z,5.80
2017-11-05T04:58:53.745Z,5.70
2017-11-05T05:01:20.364Z,5.53
2017-11-05T05:03:46.969Z,6.10
2017-11-05T05:06:13.568Z,6.77
2017-11-05T05:08:40.183Z,6.00
2017-11-05T05:11:06.788Z,6.97
2017-11-05T05:13:33.408Z,6.57
2017-11-05T05:16:00.005Z,7.60
2017-11-05T05:18:26.612Z,7.80
2017-11-05T05:20:53.281Z,8.50
2017-11-05T05:23:19.919Z,8.30
2017-11-05T05:25:46.525Z,8.63
2017-11-05T05:28:13.120Z,8.80
2017-11-05T05:30:39.744Z,7.50
2017-11-05T05:33:06.469Z,8.43
2017-11-05T05:35:33.081Z,8.40
2017-11-05T05:37:59.745Z,8.50
2017-11-05T05:40:26.383Z,8.17
2017-11-05T05:42:52.993Z,8.40
2017-11-05T05:45:19.588Z,8.73
2017-11-05T05:47:46.209Z,8.70
2017-11-05T05:50:12.806Z,8.00
2017-11-05T05:52:39.468Z,8.17
2017-11-05T05:55:06.061Z,7.33
2017-11-05T05:57:32.673Z,7.73
2017-11-05T05:59:59.383Z,6.83
2017-11-05T06:02:25.979Z,6.70
2017-11-05T06:04:52.582Z,6.47
2017-11-05T06:07:19.216Z,5.20
2017-11-05T06:09:45.845Z,4.40
2017-11-05T06:12:12.445Z,4.30
2017-11-05T06:14:39.054Z,3.73
2017-11-05T06:17:05.668Z,3.23
2017-11-05T06:19:32.261Z,3.30
2017-11-05T06:21:58.877Z,3.00
2017-11-05T06:24:25.473Z,2.90
2017-11-05T06:26:52.101Z,2.33
2017-11-05T06:29:18.708Z,2.63
2017-11-05T06:31:45.307Z,2.53
2017-11-05T06:34:11.916Z,2.20
2017-11-05T06:36:38.538Z,2.30
2017-11-05T06:39:05.166Z,2.40
2017-11-05T06:41:31.840Z,2.10
2017-11-05T06:43:58.460Z,2.03
2017-11-05T06:46:25.084Z,1.80
2017-11-05T06:48:51.685Z,2.10
2017-11-05T06:51:18.310Z,2.57
2017-11-05T06:53:44.936Z,2.80
2017-11-05T06:56:11.552Z,2.10
2017-11-05T06:58:38.164Z,1.87
2017-11-05T07:01:04.754Z,2.27
2017-11-05T07:03:31.452Z,1.73
2017-11-05T07:05:58.053Z,1.63
2017-11-05T07:08:24.650Z,1.77
2017-11-05T07:10:51.264Z,1.53
2017-11-05T07:13:17.869Z,1.77
2017-11-05T07:15:44.468Z,1.43
2017-11-05T07:18:11.081Z,1.80
2017-11-05T07:20:37.930Z,2.17
2017-11-05T07:23:04.521Z,1.33
2017-11-05T07:25:31.716Z,1.60
2017-11-05T07:27:58.337Z,1.40
2017-11-05T07:30:24.963Z,1.40
2017-11-05T07:32:51.561Z,1.10
2017-11-05T07:35:18.159Z,1.83
2017-11-05T07:37:44.785Z,1.30
2017-11-05T07:40:11.382Z,1.70
2017-11-05T07:42:37.985Z,1.53
2017-11-05T07:45:04.607Z,1.30
2017-11-05T07:47:31.202Z,1.37
2017-11-05T07:49:57.824Z,1.20
2017-11-05T07:52:24.453Z,1.30
2017-11-05T07:54:51.044Z,1.37
2017-11-05T07:57:17.660Z,1.40
2017-11-05T07:59:44.289Z,1.20
2017-11-05T08:02:10.892Z,1.13
2017-11-05T08:04:37.481Z,1.50
2017-11-05T08:07:04.089Z,1.30
2017-11-05T08:09:30.681Z,1.87
2017-11-05T08:11:57.294Z,1.93
2017-11-05T08:14:23.920Z,2.10
2017-11-05T08:16:50.576Z,2.13
2017-11-05T08:19:17.181Z,2.30
2017-11-05T08:21:43.780Z,1.83
2017-11-05T08:24:10.397Z,2.40
2017-11-05T08:26:37.028Z,2.10
2017-11-05T08:29:03.647Z,2.10
2017-11-05T08:31:30.237Z,2.40
2017-11-05T08:33:56.865Z,2.20
2017-11-05T08:36:23.475Z,2.77
2017-11-05T08:38:50.077Z,3.07
2017-11-05T08:41:16.700Z,3.63
2017-11-05T08:43:43.302Z,3.70
2017-11-05T08:46:10.032Z,2.80
2017-11-05T08:48:36.626Z,3.07
2017-11-05T08:51:03.209Z,2.57
2017-11-05T08:53:29.821Z,2.80
2017-11-05T08:55:56.436Z,2.73
2017-11-05T08:58:23.059Z,3.00
2017-11-05T09:00:49.685Z,2.57
2017-11-05T09:03:16.338Z,2.67
2017-11-05T09:05:42.957Z,2.30
2017-11-05T09:08:09.613Z,2.20
2017-11-05T09:10:36.225Z,1.60
2017-11-05T09:13:02.821Z,2.20
2017-11-05T09:15:29.444Z,2.60
2017-11-05T09:17:56.053Z,2.53
2017-11-05T09:20:22.684Z,2.37
2017-11-05T09:22:49.321Z,2.90
2017-11-05T09:25:15.933Z,3.20
2017-11-05T09:27:42.578Z,3.20
2017-11-05T09:30:09.221Z,2.37
2017-11-05T09:32:35.840Z,2.60
2017-11-05T09:35:02.588Z,2.27
2017-11-05T09:37:29.174Z,2.23
2017-11-05T09:39:55.814Z,1.63
2017-11-05T09:42:22.451Z,1.83
2017-11-05T09:44:49.063Z,2.50
2017-11-05T09:47:15.693Z,1.70
2017-11-05T09:49:42.317Z,1.53
2017-11-05T09:52:08.929Z,1.80
2017-11-05T09:54:35.557Z,1.83
2017-11-05T09:57:02.159Z,2.53
2017-11-05T09:59:28.778Z,2.00
2017-11-05T10:01:55.382Z,1.70
2017-11-05T10:04:22.039Z,1.87
2017-11-05T10:06:48.645Z,1.90
2017-11-05T10:09:15.248Z,1.83
2017-11-05T10:11:41.884Z,2.10
2017-11-05T10:14:08.523Z,2.03
2017-11-05T10:16:35.115Z,2.13
2017-11-05T10:19:01.726Z,2.93
2017-11-05T10:21:28.332Z,2.40
2017-11-05T10:23:54.921Z,2.47
2017-11-05T10:26:21.528Z,2.20
2017-11-05T10:28:48.130Z,2.43
2017-11-05T10:31:14.752Z,2.80
2017-11-05T10:33:41.379Z,2.53
2017-11-05T10:36:08.121Z,2.70
2017-11-05T10:38:34.712Z,2.53
2017-11-05T10:41:01.321Z,1.87
2017-11-05T10:43:27.982Z,2.80
2017-11-05T10:45:54.600Z,2.73
2017-11-05T10:48:21.217Z,2.60
2017-11-05T10:50:47.839Z,2.87
2017-11-05T10:53:14.436Z,3.20
2017-11-05T10:55:41.077Z,3.30
2017-11-05T10:58:07.676Z,2.97
2017-11-05T11:00:34.270Z,2.80
2017-11-05T11:03:00.896Z,2.90
2017-11-05T11:05:27.512Z,3.27
2017-11-05T11:07:54.143Z,3.20
2017-11-05T11:10:20.759Z,2.90
2017-11-05T11:12:47.371Z,2.87
2017-11-05T11:15:14.013Z,2.73
2017-11-05T11:17:40.626Z,3.23
2017-11-05T11:20:07.236Z,2.80
2017-11-05T11:22:33.874Z,3.50
2017-11-05T11:25:00.486Z,2.53
2017-11-05T11:27:27.083Z,3.20
2017-11-05T11:29:53.700Z,2.77
2017-11-05T11:32:20.327Z,3.10
2017-11-05T11:34:46.974Z,2.80
2017-11-05T11:37:13.585Z,3.17
2017-11-05T11:39:40.184Z,3.20
2017-11-05T11:42:06.806Z,2.50
2017-11-05T11:44:33.401Z,2.87
2017-11-05T11:47:00.098Z,2.67
2017-11-05T11:49:26.697Z,2.90
2017-11-05T11:51:53.308Z,3.00
2017-11-05T11:54:19.933Z,2.43
2017-11-05T11:56:46.651Z,3.13
2017-11-05T11:59:13.256Z,2.93
2017-11-05T12:01:39.857Z,3.57
2017-11-05T12:04:06.492Z,2.63
2017-11-05T12:06:33.110Z,3.20
2017-11-05T12:08:59.726Z,2.50
2017-11-05T12:11:26.367Z,3.07
2017-11-05T12:13:52.961Z,2.80
2017-11-05T12:16:19.596Z,3.27
2017-11-05T12:18:46.201Z,2.87
2017-11-05T12:21:12.836Z,2.33
2017-11-05T12:23:39.425Z,3.23
2017-11-05T13:02:41.573Z,3.27
2017-11-05T13:05:08.320Z,3.00
2017-11-05T13:07:36.301Z,3.30
2017-11-05T13:10:03.123Z,4.20
2017-11-05T13:12:31.265Z,3.10
2017-11-05T13:15:04.540Z,3.77
2017-11-05T13:20:30.860Z,3.10
2017-11-05T13:22:57.819Z,3.00
2017-11-05T13:25:25.255Z,3.70
2017-11-05T13:27:53.905Z,3.50
2017-11-05T13:30:20.710Z,3.57
2017-11-05T13:32:48.203Z,3.80
2017-11-05T13:35:14.966Z,4.07
2017-11-05T13:37:41.843Z,3.97
2017-11-05T13:56:46.705Z,4.30
2017-11-05T14:21:45.323Z,4.60
2017-11-05T14:24:12.095Z,4.70
2017-11-05T14:26:40.387Z,5.07
2017-11-05T14:29:07.208Z,4.37
2017-11-05T14:31:33.972Z,5.20
2017-11-05T14:34:00.764Z,4.80
2017-11-05T14:36:28.756Z,5.53
2017-11-05T14:38:55.574Z,4.30
2017-11-05T14:41:23.842Z,4.70
2017-11-05T14:43:52.209Z,4.73
2017-11-05T14:46:19.074Z,5.37
2017-11-05T14:48:45.823Z,5.13
2017-11-05T14:51:12.563Z,4.97
2017-11-05T14:53:39.295Z,4.80
2017-11-05T14:56:06.120Z,4.80
2017-11-05T14:58:32.923Z,4.93
2017-11-05T15:00:59.736Z,5.73
2017-11-05T15:03:26.507Z,6.30
2017-11-05T15:05:53.207Z,6.20
2017-11-05T15:08:20.080Z,6.00
2017-11-05T15:10:46.785Z,6.17
2017-11-05T15:13:13.556Z,5.90
2017-11-05T15:15:40.314Z,6.30
2017-11-05T15:18:07.131Z,7.20
2017-11-05T15:20:34.060Z,5.93
2017-11-05T15:23:00.793Z,6.70
2017-11-05T15:25:29.125Z,5.30
2017-11-05T15:27:56.006Z,5.83
2017-11-05T15:30:23.380Z,6.47
2017-11-05T15:32:51.155Z,5.53
2017-11-05T15:35:18.255Z,5.93
2017-11-05T15:37:45.548Z,6.00
2017-11-05T15:40:12.355Z,6.07
2017-11-05T15:42:39.832Z,6.20
2017-11-05T15:45:06.568Z,5.23
2017-11-05T15:47:33.385Z,5.37
2017-11-05T15:50:00.285Z,6.53
2017-11-05T15:52:27.069Z,6.20
2017-11-05T15:54:54.023Z,6.23
2017-11-05T15:57:20.878Z,6.20
2017-11-05T15:59:47.708Z,6.40
2017-11-05T16:02:14.517Z,5.97
2017-11-05T16:04:41.305Z,6.53
2017-11-05T16:07:08.080Z,6.40
2017-11-05T16:09:34.866Z,6.33
2017-11-05T16:12:01.701Z,5.73
2017-11-05T16:14:28.885Z,6.17
2017-11-05T16:16:55.626Z,5.60
2017-11-05T16:19:24.249Z,6.73
2017-11-05T16:21:51.030Z,7.07
2017-11-05T16:24:17.905Z,6.77
2017-11-05T16:26:44.653Z,5.80
2017-11-05T16:29:12.086Z,5.77
2017-11-05T16:31:38.856Z,6.27
2017-11-05T16:34:05.632Z,6.27
2017-11-05T16:36:32.362Z,5.77
2017-11-05T16:38:59.238Z,5.93
2017-11-05T16:41:26.014Z,6.40
2017-11-05T16:43:54.269Z,5.93
2017-11-05T16:46:21.092Z,5.87
2017-11-05T16:48:48.302Z,6.60
2017-11-05T16:51:15.152Z,7.10
2017-11-05T16:53:41.997Z,8.43
2017-11-05T16:56:08.779Z,8.07
2017-11-05T16:58:36.860Z,7.90
2017-11-05T17:01:03.736Z,7.93
2017-11-05T17:03:30.526Z,7.70
2017-11-05T17:05:57.308Z,7.13
2017-11-05T17:08:24.142Z,7.47
2017-11-05T17:10:50.925Z,7.33
2017-11-05T17:13:17.727Z,8.30
2017-11-05T17:15:44.501Z,8.00
2017-11-05T17:18:11.384Z,7.30
2017-11-05T17:20:38.705Z,8.23
2017-11-05T17:23:05.539Z,7.60
2017-11-05T17:25:32.318Z,7.20
2017-11-05T17:27:59.020Z,6.43
2017-11-05T17:30:27.444Z,6.67
2017-11-05T17:37:58.166Z,6.37
